Brazoria County Airport
KLBX : now visible

Airfield :











YOU CAN JOIN US ON...

 
LOGIN :

Register | Disclaimer

   EN    FR    IT 

 









Legend :    VFR   Marginal VFR   IFR   Intensive IFR   Very Intensive IFR
Visi :
Ceiling :
>= 8 km
>= 3000ft
5 to 8 km
1000 to 3000 ft
1500m to 5 km
500 to 1000 ft
800 to 1500m
200 to 500 ft
< 800m
< 200 ft
Symbols :   Thunderstorms  Fog  Heavy snow  Heavy precipitations  Wind > 20 kt






- Airport Elevation : 25 ft


KLBX - Brazoria County

CURRENT METAR :
  • 291653Z AUTO 36011KT 10SM CLR 29/21 A3003 RMK AO2 SLP167 T02890206

EXPIRED METARs :
  • 291553Z AUTO 35011KT 10SM CLR 28/21 A3003 RMK AO2 SLP168 T02830211
  • 291453Z AUTO 35013KT 10SM CLR 27/22 A3003 RMK AO2 SLP169 T02720217 51007

TAF KLBX
Valid from the 29 at 14:00 until the 30 at 12:00 UTC


291400Z 2914/3012 36008KT P6SM FEW040 SCT250
FM292000 35007KT P6SM VCSH SCT040 SCT250
FM300000 10006KT P6SM SCT250
FM300300 VRB04KT P6SM FEW250
KZHU FIR / North America



MET'MAP, your aeronautical weather chart ! - Copyright ORBIFLY December 2007 - Disclaimer

ORBIFLY MET'MAP TEAM :

Programming & Development : Alexandra Zaïnal
Concept & original design : Baudouin d'Aumeries
Assistance for programming : Marc-Olivier Méhu
Technical & hardware support : Manuel Goepfert

Contact : metmap@orbifly.com




SOURCES & CREDITS :

   NOAA       Earth
Advisory